createdAt,value
2017-05-08T00:00:27.047Z,0
2017-05-08T00:01:07.927Z,0
2017-05-08T00:01:48.813Z,0
2017-05-08T00:02:29.708Z,0
2017-05-08T00:03:10.595Z,0
2017-05-08T00:03:51.471Z,0
2017-05-08T00:04:32.344Z,0
2017-05-08T00:05:13.234Z,0
2017-05-08T00:05:54.132Z,0
2017-05-08T00:06:35.015Z,0
2017-05-08T00:07:15.900Z,0
2017-05-08T00:07:56.790Z,0
2017-05-08T00:08:37.669Z,0
2017-05-08T00:09:18.557Z,0
2017-05-08T00:09:59.415Z,0
2017-05-08T00:10:40.294Z,0
2017-05-08T00:11:21.183Z,0
2017-05-08T00:12:02.065Z,0
2017-05-08T00:12:42.944Z,0
2017-05-08T00:13:23.833Z,0
2017-05-08T00:14:04.713Z,0
2017-05-08T00:14:45.593Z,0
2017-05-08T00:15:26.476Z,0
2017-05-08T00:16:07.351Z,0
2017-05-08T00:16:48.232Z,0
2017-05-08T00:17:29.116Z,0
2017-05-08T00:18:10.004Z,0
2017-05-08T00:18:50.890Z,0
2017-05-08T00:19:31.784Z,0
2017-05-08T00:20:12.660Z,0
2017-05-08T00:20:53.542Z,0
2017-05-08T00:21:34.428Z,0
2017-05-08T00:22:15.324Z,0
2017-05-08T00:22:56.210Z,0
2017-05-08T00:23:37.093Z,0
2017-05-08T00:24:17.983Z,0
2017-05-08T00:24:58.870Z,0
2017-05-08T00:25:39.768Z,0
2017-05-08T00:26:20.667Z,0
2017-05-08T00:27:01.554Z,0
2017-05-08T00:27:42.439Z,0
2017-05-08T00:28:23.348Z,0
2017-05-08T00:29:04.216Z,0
2017-05-08T00:29:45.083Z,0
2017-05-08T00:30:25.967Z,0
2017-05-08T00:31:06.863Z,0
2017-05-08T00:31:47.760Z,0
2017-05-08T00:32:28.650Z,0
2017-05-08T00:33:09.542Z,0
2017-05-08T00:33:50.429Z,0
2017-05-08T00:34:31.299Z,0
2017-05-08T00:35:12.183Z,0
2017-05-08T00:35:53.067Z,0
2017-05-08T00:36:33.955Z,0
2017-05-08T00:37:14.830Z,0
2017-05-08T00:37:55.703Z,0
2017-05-08T00:38:36.578Z,0
2017-05-08T00:39:17.454Z,0
2017-05-08T00:39:58.344Z,0
2017-05-08T00:40:39.224Z,0
2017-05-08T00:41:20.089Z,0
2017-05-08T00:42:00.970Z,0
2017-05-08T00:42:41.860Z,0
2017-05-08T00:43:22.739Z,0
2017-05-08T00:44:03.611Z,0
2017-05-08T00:44:44.480Z,0
2017-05-08T00:45:25.362Z,0
2017-05-08T00:46:06.269Z,0
2017-05-08T00:46:47.148Z,0
2017-05-08T00:47:28.009Z,0
2017-05-08T00:48:08.878Z,0
2017-05-08T00:48:49.761Z,0
2017-05-08T00:49:30.668Z,0
2017-05-08T00:50:11.524Z,0
2017-05-08T00:50:52.403Z,0
2017-05-08T00:51:33.322Z,0
2017-05-08T00:52:14.202Z,0
2017-05-08T00:52:55.079Z,0
2017-05-08T00:53:35.967Z,0
2017-05-08T00:54:16.878Z,0
2017-05-08T00:54:57.755Z,0
2017-05-08T00:55:38.615Z,0
2017-05-08T00:56:19.498Z,0
2017-05-08T00:57:00.401Z,0
2017-05-08T00:57:41.274Z,0
2017-05-08T00:58:22.143Z,0
2017-05-08T00:59:03.019Z,0
2017-05-08T00:59:43.917Z,0
2017-05-08T01:00:24.812Z,0
2017-05-08T01:01:05.687Z,0
2017-05-08T01:01:46.573Z,0
2017-05-08T01:02:27.465Z,0
2017-05-08T01:03:08.352Z,0
2017-05-08T01:03:49.248Z,0
2017-05-08T01:04:30.145Z,0
2017-05-08T01:05:11.039Z,0
2017-05-08T01:05:51.919Z,0
2017-05-08T01:06:32.835Z,0
2017-05-08T01:07:13.707Z,0
2017-05-08T01:07:54.562Z,0
2017-05-08T01:08:35.475Z,0
2017-05-08T01:09:16.375Z,0
2017-05-08T01:09:57.231Z,0
2017-05-08T01:10:38.089Z,0
2017-05-08T01:11:18.991Z,0
2017-05-08T01:11:59.842Z,0
2017-05-08T01:12:40.733Z,0
2017-05-08T01:13:21.608Z,0
2017-05-08T01:14:02.501Z,0
2017-05-08T01:14:43.376Z,0
2017-05-08T01:15:24.273Z,0
2017-05-08T01:16:05.159Z,0
2017-05-08T01:16:46.040Z,0
2017-05-08T01:17:26.934Z,0
2017-05-08T01:18:07.816Z,0
2017-05-08T01:18:48.691Z,0
2017-05-08T01:19:29.565Z,0
2017-05-08T01:20:10.461Z,0
2017-05-08T01:20:51.349Z,0
2017-05-08T01:21:32.238Z,0
2017-05-08T01:22:13.134Z,0
2017-05-08T01:22:54.029Z,0
2017-05-08T01:23:34.901Z,0
2017-05-08T01:24:15.775Z,0
2017-05-08T01:24:56.654Z,0
2017-05-08T01:25:37.584Z,0
2017-05-08T01:26:18.439Z,0
2017-05-08T01:26:59.332Z,0
2017-05-08T01:27:40.224Z,0
2017-05-08T01:28:21.116Z,0
2017-05-08T01:29:02.010Z,0
2017-05-08T01:29:42.904Z,0
2017-05-08T01:30:23.788Z,0
2017-05-08T01:31:04.679Z,0
2017-05-08T01:31:45.569Z,0
2017-05-08T01:32:26.450Z,0
2017-05-08T01:33:07.328Z,0
2017-05-08T01:33:48.210Z,0
2017-05-08T01:34:29.108Z,0
2017-05-08T01:35:09.987Z,0
2017-05-08T01:35:50.865Z,0
2017-05-08T01:36:31.749Z,0
2017-05-08T01:37:12.653Z,0
2017-05-08T01:37:53.524Z,0
2017-05-08T01:38:34.395Z,0
2017-05-08T01:39:15.277Z,0
2017-05-08T01:39:56.178Z,0
2017-05-08T01:40:37.064Z,0
2017-05-08T01:41:17.921Z,0
2017-05-08T01:41:58.818Z,0
2017-05-08T01:42:39.731Z,0
2017-05-08T01:43:20.603Z,0
2017-05-08T01:44:01.458Z,0
2017-05-08T01:44:42.319Z,0
2017-05-08T01:45:23.212Z,0
2017-05-08T01:46:04.110Z,0
2017-05-08T01:46:45.003Z,0
2017-05-08T01:47:25.856Z,0
2017-05-08T01:48:06.728Z,0
2017-05-08T01:48:47.618Z,0
2017-05-08T01:49:28.501Z,0
2017-05-08T01:50:09.387Z,0
2017-05-08T01:50:50.280Z,0
2017-05-08T01:51:31.176Z,0
2017-05-08T01:52:12.073Z,0
2017-05-08T01:52:52.966Z,0
2017-05-08T01:53:33.857Z,0
2017-05-08T01:54:14.737Z,0
2017-05-08T01:54:55.619Z,0
2017-05-08T01:55:36.502Z,0
2017-05-08T01:56:17.384Z,0
2017-05-08T01:56:58.272Z,0
2017-05-08T01:57:39.237Z,0
2017-05-08T01:58:20.131Z,0
2017-05-08T01:59:01.026Z,0
2017-05-08T01:59:41.910Z,0
2017-05-08T02:00:22.790Z,0
2017-05-08T02:01:03.719Z,0
2017-05-08T02:01:44.635Z,0
2017-05-08T02:02:25.493Z,0
2017-05-08T02:03:06.376Z,0
2017-05-08T02:03:47.255Z,0
2017-05-08T02:04:28.136Z,0
2017-05-08T02:05:09.042Z,0
2017-05-08T02:05:49.924Z,0
2017-05-08T02:06:30.805Z,0
2017-05-08T02:07:11.692Z,0
2017-05-08T02:07:52.573Z,0
2017-05-08T02:08:33.459Z,0
2017-05-08T02:09:14.337Z,0
2017-05-08T02:09:55.203Z,0
2017-05-08T02:10:36.106Z,0
2017-05-08T02:11:16.972Z,0
2017-05-08T02:11:57.853Z,0
2017-05-08T02:12:38.736Z,0
2017-05-08T02:13:19.627Z,0
2017-05-08T02:14:00.508Z,0
2017-05-08T02:14:41.392Z,0
2017-05-08T02:15:22.242Z,0
2017-05-08T02:16:03.131Z,0
2017-05-08T02:16:44.016Z,0
2017-05-08T02:17:24.896Z,0
2017-05-08T02:18:05.774Z,0
2017-05-08T02:18:46.643Z,0
2017-05-08T02:19:27.525Z,0
2017-05-08T02:20:08.410Z,0
2017-05-08T02:20:49.288Z,0
2017-05-08T02:21:30.181Z,0
2017-05-08T02:22:11.076Z,0
2017-05-08T02:22:51.962Z,0
2017-05-08T02:23:32.863Z,0
2017-05-08T02:24:13.755Z,0
2017-05-08T02:24:54.641Z,0
2017-05-08T02:25:35.521Z,0
2017-05-08T02:26:16.406Z,0
2017-05-08T02:26:57.299Z,0
2017-05-08T02:27:38.184Z,0
2017-05-08T02:28:19.061Z,0
2017-05-08T02:28:59.947Z,0
2017-05-08T02:29:40.840Z,0
2017-05-08T02:30:21.730Z,0
2017-05-08T02:31:02.612Z,0
2017-05-08T02:31:43.502Z,0
2017-05-08T02:32:24.399Z,0
2017-05-08T02:33:05.268Z,0
2017-05-08T02:33:46.154Z,0
2017-05-08T02:34:27.047Z,0
2017-05-08T02:35:07.932Z,0
2017-05-08T02:35:48.807Z,0
2017-05-08T02:36:29.697Z,0
2017-05-08T02:37:10.581Z,0
2017-05-08T02:37:51.463Z,0
2017-05-08T02:38:32.351Z,0
2017-05-08T02:39:13.856Z,0
2017-05-08T02:39:54.737Z,0
2017-05-08T02:40:35.614Z,0
2017-05-08T02:41:16.489Z,0
2017-05-08T02:41:57.366Z,0
2017-05-08T02:42:38.268Z,0
2017-05-08T02:43:19.137Z,4
2017-05-08T02:44:00.029Z,4
2017-05-08T02:44:40.907Z,4
2017-05-08T02:45:21.802Z,4
2017-05-08T02:46:02.697Z,4
2017-05-08T02:46:43.572Z,0
2017-05-08T02:47:24.458Z,0
2017-05-08T02:48:05.336Z,0
2017-05-08T02:48:46.223Z,4
2017-05-08T02:49:27.104Z,4
2017-05-08T02:50:07.994Z,4
2017-05-08T02:50:48.887Z,0
2017-05-08T02:51:29.757Z,4
2017-05-08T02:52:10.651Z,4
2017-05-08T02:52:51.530Z,8
2017-05-08T02:53:32.411Z,4
2017-05-08T02:54:13.287Z,4
2017-05-08T02:54:54.177Z,8
2017-05-08T02:55:35.073Z,8
2017-05-08T02:56:15.948Z,4
2017-05-08T02:56:56.828Z,8
2017-05-08T02:57:37.710Z,8
2017-05-08T02:58:18.595Z,8
2017-05-08T02:58:59.487Z,12
2017-05-08T02:59:40.368Z,8
2017-05-08T03:00:21.253Z,12
2017-05-08T03:01:02.146Z,12
2017-05-08T03:01:43.053Z,12
2017-05-08T03:02:23.954Z,16
2017-05-08T03:04:38.052Z,16
2017-05-08T03:05:18.938Z,16
2017-05-08T03:05:59.824Z,20
2017-05-08T03:06:40.712Z,20
2017-05-08T03:07:21.596Z,24
2017-05-08T03:08:02.481Z,24
2017-05-08T03:08:43.360Z,28
2017-05-08T03:09:24.241Z,24
2017-05-08T03:10:05.112Z,28
2017-05-08T03:10:45.994Z,28
2017-05-08T03:11:26.892Z,28
2017-05-08T03:12:07.783Z,32
2017-05-08T03:12:48.633Z,32
2017-05-08T03:13:29.511Z,32
2017-05-08T03:14:10.405Z,32
2017-05-08T03:14:51.287Z,36
2017-05-08T03:15:32.167Z,36
2017-05-08T03:16:13.057Z,36
2017-05-08T03:16:53.947Z,40
2017-05-08T03:17:34.844Z,44
2017-05-08T03:18:15.729Z,48
2017-05-08T03:18:56.609Z,48
2017-05-08T03:19:37.495Z,52
2017-05-08T03:20:18.394Z,56
2017-05-08T03:20:59.264Z,64
2017-05-08T03:21:40.149Z,72
2017-05-08T03:22:21.041Z,76
2017-05-08T03:23:01.940Z,84
2017-05-08T03:23:42.826Z,92
2017-05-08T03:24:23.702Z,92
2017-05-08T03:25:04.588Z,96
2017-05-08T03:25:45.470Z,96
2017-05-08T03:26:26.358Z,96
2017-05-08T03:27:07.247Z,96
2017-05-08T03:27:48.135Z,96
2017-05-08T03:28:29.003Z,96
2017-05-08T03:29:09.889Z,100
2017-05-08T03:29:50.770Z,108
2017-05-08T03:30:31.647Z,120
2017-05-08T03:31:12.514Z,124
2017-05-08T03:31:53.395Z,124
2017-05-08T03:32:34.300Z,124
2017-05-08T03:33:15.169Z,120
2017-05-08T03:33:56.066Z,112
2017-05-08T03:34:36.919Z,108
2017-05-08T03:35:17.786Z,112
2017-05-08T03:35:58.652Z,116
2017-05-08T03:36:39.540Z,116
2017-05-08T03:37:20.430Z,120
2017-05-08T03:38:01.318Z,120
2017-05-08T03:38:42.217Z,124
2017-05-08T03:39:23.097Z,124
2017-05-08T03:40:03.987Z,128
2017-05-08T03:40:44.879Z,132
2017-05-08T03:41:25.762Z,140
2017-05-08T03:42:06.667Z,144
2017-05-08T03:42:47.568Z,136
2017-05-08T03:43:28.449Z,132
2017-05-08T03:44:09.325Z,116
2017-05-08T03:44:50.191Z,104
2017-05-08T03:45:31.073Z,96
2017-05-08T03:46:11.953Z,96
2017-05-08T03:46:52.832Z,96
2017-05-08T03:47:33.712Z,96
2017-05-08T03:48:14.584Z,96
2017-05-08T03:48:55.459Z,100
2017-05-08T03:49:36.347Z,100
2017-05-08T03:50:17.213Z,96
2017-05-08T03:50:58.097Z,100
2017-05-08T03:51:38.978Z,100
2017-05-08T03:52:19.851Z,104
2017-05-08T03:53:00.740Z,108
2017-05-08T03:53:41.610Z,112
2017-05-08T03:54:22.485Z,116
2017-05-08T03:55:03.371Z,120
2017-05-08T03:55:44.251Z,132
2017-05-08T03:56:25.155Z,136
2017-05-08T03:57:06.023Z,152
2017-05-08T03:57:46.905Z,168
2017-05-08T03:58:27.786Z,176
2017-05-08T03:59:08.671Z,184
2017-05-08T03:59:49.558Z,188
2017-05-08T04:00:30.436Z,184
2017-05-08T04:01:11.737Z,184
2017-05-08T04:01:52.621Z,184
2017-05-08T04:02:33.959Z,184
2017-05-08T04:03:14.844Z,188
2017-05-08T04:03:55.729Z,196
2017-05-08T04:04:36.607Z,208
2017-05-08T04:05:17.491Z,224
2017-05-08T04:05:58.370Z,240
2017-05-08T04:06:39.265Z,260
2017-05-08T04:07:20.136Z,272
2017-05-08T04:08:01.018Z,284
2017-05-08T04:08:41.911Z,288
2017-05-08T04:09:22.825Z,300
2017-05-08T04:10:03.690Z,304
2017-05-08T04:10:44.553Z,312
2017-05-08T04:11:25.927Z,320
2017-05-08T04:12:06.795Z,320
2017-05-08T04:12:47.670Z,324
2017-05-08T04:13:28.527Z,324
2017-05-08T04:14:09.407Z,332
2017-05-08T04:14:50.290Z,348
2017-05-08T04:15:31.174Z,368
2017-05-08T04:16:12.044Z,384
2017-05-08T04:16:52.929Z,396
2017-05-08T04:17:33.792Z,396
2017-05-08T04:18:14.679Z,376
2017-05-08T04:18:55.565Z,356
2017-05-08T04:19:36.432Z,348
2017-05-08T04:20:17.309Z,336
2017-05-08T04:20:58.197Z,328
2017-05-08T04:21:39.071Z,324
2017-05-08T04:22:19.961Z,308
2017-05-08T04:23:00.845Z,300
2017-05-08T04:23:41.710Z,284
2017-05-08T04:24:22.594Z,280
2017-05-08T04:25:03.459Z,276
2017-05-08T04:25:44.332Z,276
2017-05-08T04:26:25.248Z,288
2017-05-08T04:27:06.137Z,312
2017-05-08T04:27:47.012Z,336
2017-05-08T04:28:27.893Z,376
2017-05-08T04:29:08.772Z,416
2017-05-08T04:29:49.673Z,468
2017-05-08T04:30:30.558Z,516
2017-05-08T04:31:11.446Z,544
2017-05-08T04:31:52.330Z,548
2017-05-08T04:32:33.207Z,528
2017-05-08T04:34:48.386Z,484
2017-05-08T04:35:29.257Z,532
2017-05-08T04:36:10.125Z,596
2017-05-08T04:36:51.013Z,656
2017-05-08T04:37:31.890Z,708
2017-05-08T04:38:12.787Z,752
2017-05-08T04:38:53.706Z,764
2017-05-08T04:39:34.587Z,756
2017-05-08T04:40:15.462Z,736
2017-05-08T04:40:56.325Z,684
2017-05-08T04:41:37.223Z,616
2017-05-08T04:42:18.085Z,536
2017-05-08T04:42:58.936Z,468
2017-05-08T04:43:39.814Z,416
2017-05-08T04:44:20.675Z,388
2017-05-08T04:45:01.554Z,372
2017-05-08T04:45:42.399Z,360
2017-05-08T04:46:23.283Z,348
2017-05-08T04:47:04.160Z,340
2017-05-08T04:47:45.027Z,320
2017-05-08T04:48:25.899Z,312
2017-05-08T04:49:06.745Z,308
2017-05-08T04:49:47.620Z,312
2017-05-08T04:50:28.472Z,316
2017-05-08T04:51:09.366Z,328
2017-05-08T04:51:50.214Z,340
2017-05-08T04:52:31.100Z,348
2017-05-08T04:53:11.972Z,352
2017-05-08T04:53:52.832Z,360
2017-05-08T04:54:33.691Z,368
2017-05-08T04:55:14.555Z,376
2017-05-08T04:55:55.421Z,392
2017-05-08T04:56:36.307Z,416
2017-05-08T04:57:17.146Z,432
2017-05-08T04:57:58.017Z,448
2017-05-08T04:58:38.876Z,460
2017-05-08T04:59:19.747Z,484
2017-05-08T05:00:00.628Z,508
2017-05-08T05:00:41.515Z,544
2017-05-08T05:01:22.432Z,584
2017-05-08T05:02:03.268Z,628
2017-05-08T05:02:44.132Z,660
2017-05-08T05:03:24.999Z,676
2017-05-08T05:04:05.880Z,660
2017-05-08T05:04:46.762Z,628
2017-05-08T05:05:27.637Z,580
2017-05-08T05:06:08.516Z,532
2017-05-08T05:06:49.402Z,480
2017-05-08T05:07:30.299Z,428
2017-05-08T05:08:12.067Z,376
2017-05-08T05:08:52.955Z,328
2017-05-08T05:09:33.836Z,296
2017-05-08T05:10:14.694Z,268
2017-05-08T05:10:55.586Z,260
2017-05-08T05:11:38.978Z,260
2017-05-08T05:12:19.848Z,272
2017-05-08T05:13:00.738Z,300
2017-05-08T05:13:41.613Z,324
2017-05-08T05:14:22.502Z,348
2017-05-08T05:15:03.391Z,364
2017-05-08T05:15:44.268Z,368
2017-05-08T05:16:25.177Z,364
2017-05-08T05:17:06.114Z,352
2017-05-08T05:17:47.034Z,340
2017-05-08T05:18:27.921Z,328
2017-05-08T05:19:08.787Z,316
2017-05-08T05:19:49.672Z,320
2017-05-08T05:20:30.551Z,332
2017-05-08T05:21:11.417Z,348
2017-05-08T05:21:52.315Z,356
2017-05-08T05:22:33.195Z,364
2017-05-08T05:23:14.070Z,360
2017-05-08T05:23:54.954Z,368
2017-05-08T05:24:35.846Z,388
2017-05-08T05:25:16.888Z,436
2017-05-08T05:25:57.768Z,504
2017-05-08T05:26:38.651Z,572
2017-05-08T05:27:19.533Z,632
2017-05-08T05:28:00.424Z,692
2017-05-08T05:28:41.304Z,736
2017-05-08T05:29:22.196Z,772
2017-05-08T05:30:03.076Z,780
2017-05-08T05:30:43.952Z,760
2017-05-08T05:31:24.859Z,716
2017-05-08T05:32:05.733Z,648
2017-05-08T05:32:46.621Z,600
2017-05-08T05:33:27.518Z,576
2017-05-08T05:34:08.389Z,572
2017-05-08T05:34:49.249Z,596
2017-05-08T05:35:30.147Z,628
2017-05-08T05:36:11.027Z,636
2017-05-08T05:36:51.909Z,640
2017-05-08T05:37:32.791Z,652
2017-05-08T05:38:13.667Z,680
2017-05-08T05:38:54.563Z,724
2017-05-08T05:39:35.415Z,780
2017-05-08T05:40:16.274Z,836
2017-05-08T05:40:57.164Z,916
2017-05-08T05:41:38.037Z,960
2017-05-08T05:42:18.918Z,972
2017-05-08T05:42:59.802Z,1000
2017-05-08T05:43:40.686Z,980
2017-05-08T05:44:21.572Z,936
2017-05-08T05:45:02.440Z,912
2017-05-08T05:45:43.334Z,916
2017-05-08T05:46:24.200Z,956
2017-05-08T05:47:05.109Z,1028
2017-05-08T05:47:45.987Z,1120
2017-05-08T05:48:26.866Z,1224
2017-05-08T05:49:07.767Z,1348
2017-05-08T05:49:48.612Z,1468
2017-05-08T05:50:29.512Z,1564
2017-05-08T05:51:10.402Z,1656
2017-05-08T05:51:51.274Z,1736
2017-05-08T05:52:32.156Z,1788
2017-05-08T05:53:13.031Z,1824
2017-05-08T05:53:53.876Z,1816
2017-05-08T05:54:34.775Z,1728
2017-05-08T05:55:15.705Z,1580
2017-05-08T05:55:56.593Z,1464
2017-05-08T05:56:37.494Z,1396
2017-05-08T05:57:18.370Z,1384
2017-05-08T05:57:59.246Z,1404
2017-05-08T05:58:40.135Z,1420
2017-05-08T05:59:35.985Z,1424
2017-05-08T06:00:16.867Z,1424
2017-05-08T06:00:57.748Z,1440
2017-05-08T06:01:38.641Z,1468
2017-05-08T06:02:19.520Z,1504
2017-05-08T06:03:00.401Z,1536
2017-05-08T06:03:55.230Z,1592
2017-05-08T06:04:36.168Z,1660
2017-05-08T06:05:17.055Z,1748
2017-05-08T06:07:51.307Z,1628
2017-05-08T06:10:05.083Z,1548
2017-05-08T06:12:29.309Z,1412
2017-05-08T06:13:10.195Z,1380
2017-05-08T06:13:53.671Z,1352
2017-05-08T06:14:34.564Z,1308
2017-05-08T06:15:15.458Z,1268
2017-05-08T06:15:56.351Z,1240
2017-05-08T06:20:03.535Z,1296
2017-05-08T06:24:27.730Z,1072
2017-05-08T06:25:08.615Z,1132
2017-05-08T06:25:49.495Z,1240
2017-05-08T06:26:30.375Z,1380
2017-05-08T06:27:11.260Z,1508
2017-05-08T06:27:52.143Z,1576
2017-05-08T06:28:33.023Z,1576
2017-05-08T06:29:13.912Z,1516
2017-05-08T06:29:54.816Z,1484
2017-05-08T06:30:43.842Z,1532
2017-05-08T06:31:24.719Z,1616
2017-05-08T06:32:05.604Z,1676
2017-05-08T06:32:46.498Z,1684
2017-05-08T06:33:28.211Z,1640
2017-05-08T06:34:23.874Z,1540
2017-05-08T06:35:04.741Z,1476
2017-05-08T06:35:52.636Z,1476
2017-05-08T06:36:33.519Z,1524
2017-05-08T06:37:14.416Z,1552
2017-05-08T06:37:57.850Z,1572
2017-05-08T06:38:38.728Z,1552
2017-05-08T06:39:22.247Z,1492
2017-05-08T06:40:03.137Z,1392
2017-05-08T06:40:44.024Z,1264
2017-05-08T06:41:24.906Z,1164
2017-05-08T06:42:05.793Z,1112
2017-05-08T06:44:24.755Z,1060
2017-05-08T06:45:05.641Z,1048
2017-05-08T06:45:51.947Z,1012
2017-05-08T06:46:32.832Z,984
2017-05-08T06:47:13.729Z,976
2017-05-08T06:48:00.488Z,964
2017-05-08T06:48:41.194Z,996
2017-05-08T06:49:22.078Z,1104
2017-05-08T06:50:02.961Z,1232
2017-05-08T06:50:43.848Z,1344
2017-05-08T06:51:36.243Z,1380
2017-05-08T06:52:17.133Z,1360
2017-05-08T06:52:58.022Z,1380
2017-05-08T06:53:38.934Z,1460
2017-05-08T06:55:11.320Z,1692
2017-05-08T06:55:52.233Z,1836
2017-05-08T06:57:30.688Z,2408
2017-05-08T06:58:11.562Z,2608
2017-05-08T07:01:37.739Z,2684
2017-05-08T07:02:18.630Z,2600
2017-05-08T07:02:59.521Z,2596
2017-05-08T07:03:42.772Z,2644
2017-05-08T07:04:23.668Z,2684
2017-05-08T07:05:04.567Z,2700
2017-05-08T07:05:45.453Z,2728
2017-05-08T07:06:28.339Z,2784
2017-05-08T07:07:20.224Z,2848
2017-05-08T07:08:01.126Z,2868
2017-05-08T07:08:41.991Z,2932
2017-05-08T07:09:22.866Z,2980
2017-05-08T07:10:05.381Z,3080
2017-05-08T07:10:46.283Z,3292
2017-05-08T07:11:27.347Z,3436
2017-05-08T07:12:08.256Z,3512
2017-05-08T07:12:49.196Z,3740
2017-05-08T07:13:30.092Z,4084
2017-05-08T07:14:10.982Z,4340
2017-05-08T07:14:51.895Z,4336
2017-05-08T07:15:32.787Z,4328
2017-05-08T07:16:13.659Z,4388
2017-05-08T07:16:54.769Z,4440
2017-05-08T07:17:37.729Z,4228
2017-05-08T07:18:18.606Z,3992
2017-05-08T07:21:56.429Z,2660
2017-05-08T07:22:37.297Z,2340
2017-05-08T07:23:18.183Z,2224
2017-05-08T07:23:59.062Z,2208
2017-05-08T07:24:39.949Z,2296
2017-05-08T07:25:20.859Z,2460
2017-05-08T07:26:01.739Z,2756
2017-05-08T07:26:42.613Z,3220
2017-05-08T07:27:30.332Z,3524
2017-05-08T07:28:11.202Z,3624
2017-05-08T07:28:52.093Z,3508
2017-05-08T07:29:32.985Z,3304
2017-05-08T07:30:13.858Z,3384
2017-05-08T07:30:54.745Z,3488
2017-05-08T07:31:35.621Z,3376
2017-05-08T07:32:16.529Z,3120
2017-05-08T07:32:57.397Z,3132
2017-05-08T07:33:38.270Z,2824
2017-05-08T07:34:19.160Z,2680
2017-05-08T07:35:00.061Z,2916
2017-05-08T07:35:40.933Z,3024
2017-05-08T07:36:21.861Z,3212
2017-05-08T07:37:02.743Z,2940
2017-05-08T07:37:43.627Z,2756
2017-05-08T07:40:12.745Z,2444
2017-05-08T07:40:56.728Z,2492
2017-05-08T07:41:37.637Z,2552
2017-05-08T07:42:18.529Z,2588
2017-05-08T07:42:59.413Z,2664
2017-05-08T07:45:28.552Z,2868
2017-05-08T07:46:09.444Z,2476
2017-05-08T07:46:50.323Z,2408
2017-05-08T07:48:48.846Z,2584
2017-05-08T07:49:29.729Z,2688
2017-05-08T07:50:25.537Z,2608
2017-05-08T07:51:06.410Z,2520
2017-05-08T07:51:47.291Z,2308
2017-05-08T07:52:28.182Z,2116
2017-05-08T07:53:09.069Z,2020
2017-05-08T07:53:49.969Z,2092
2017-05-08T07:54:30.857Z,2168
2017-05-08T07:55:11.736Z,2184
2017-05-08T07:55:52.620Z,1948
2017-05-08T07:56:48.179Z,2116
2017-05-08T07:57:29.064Z,2276
2017-05-08T07:59:42.838Z,2252
2017-05-08T08:01:41.349Z,2108
2017-05-08T08:02:49.523Z,2596
2017-05-08T08:03:30.424Z,2564
2017-05-08T08:07:33.720Z,1940
2017-05-08T08:22:22.836Z,2288
2017-05-08T08:23:03.738Z,2068
2017-05-08T08:23:44.617Z,2444
2017-05-08T08:24:25.519Z,2660
2017-05-08T08:25:06.393Z,2508
2017-05-08T08:25:47.278Z,2192
2017-05-08T08:29:55.023Z,2196
2017-05-08T08:31:33.480Z,1948
2017-05-08T08:32:14.378Z,1992
2017-05-08T08:32:55.243Z,1944
2017-05-08T08:33:36.135Z,1740
2017-05-08T08:34:24.822Z,1768
2017-05-08T08:35:05.697Z,1740
2017-05-08T08:35:46.583Z,2024
2017-05-08T08:36:27.473Z,2292
2017-05-08T08:37:08.349Z,2224
2017-05-08T08:37:49.224Z,2148
2017-05-08T08:38:30.102Z,2104
2017-05-08T08:39:10.992Z,2092
2017-05-08T08:39:51.877Z,2296
2017-05-08T08:40:32.748Z,2256
2017-05-08T08:41:13.626Z,2432
2017-05-08T08:41:54.504Z,2596
2017-05-08T08:42:35.380Z,2672
2017-05-08T08:43:16.268Z,2604
2017-05-08T08:43:57.140Z,2780
2017-05-08T08:44:38.013Z,2716
2017-05-08T08:45:18.901Z,2692
2017-05-08T08:45:59.778Z,2756
2017-05-08T08:46:40.655Z,2512
2017-05-08T08:47:21.538Z,2488
2017-05-08T08:48:02.411Z,2500
2017-05-08T08:48:43.297Z,2564
2017-05-08T08:49:24.191Z,2472
2017-05-08T08:50:05.080Z,2272
2017-05-08T08:50:45.968Z,2192
2017-05-08T08:51:26.858Z,2260
2017-05-08T08:52:07.750Z,2296
2017-05-08T08:52:48.634Z,2144
2017-05-08T08:53:29.549Z,2168
2017-05-08T08:54:10.434Z,2112
2017-05-08T08:54:51.334Z,2124
2017-05-08T08:55:32.295Z,2148
2017-05-08T08:56:13.185Z,2228
2017-05-08T08:56:54.065Z,2100
2017-05-08T08:57:34.954Z,2132
2017-05-08T08:58:15.849Z,2276
2017-05-08T08:58:56.737Z,2184
2017-05-08T08:59:37.629Z,2152
2017-05-08T09:00:18.516Z,2156
2017-05-08T09:00:59.406Z,2120
2017-05-08T09:01:55.002Z,2160
2017-05-08T09:02:35.883Z,2052
2017-05-08T09:03:16.768Z,2080
2017-05-08T09:03:57.661Z,2340
2017-05-08T09:04:38.535Z,2404
2017-05-08T09:05:19.414Z,2484
2017-05-08T09:06:00.296Z,2468
2017-05-08T09:06:41.189Z,2532
2017-05-08T09:07:22.076Z,2400
2017-05-08T09:08:02.949Z,2300
2017-05-08T09:08:43.834Z,2308
2017-05-08T09:09:24.724Z,2684
2017-05-08T09:10:05.606Z,2836
2017-05-08T09:10:49.405Z,2768
2017-05-08T09:11:30.283Z,2588
2017-05-08T09:12:11.162Z,2260
2017-05-08T09:14:45.416Z,3068
2017-05-08T09:15:26.303Z,3212
2017-05-08T09:16:07.502Z,3644
2017-05-08T09:16:48.339Z,4220
2017-05-08T09:17:29.223Z,3856
2017-05-08T09:18:10.088Z,3320
2017-05-08T09:18:50.967Z,3144
2017-05-08T09:19:31.864Z,3368
2017-05-08T09:20:12.748Z,3652
2017-05-08T09:20:56.399Z,3740
2017-05-08T09:21:37.289Z,4516
2017-05-08T09:22:18.162Z,5260
2017-05-08T09:24:28.291Z,5580
2017-05-08T09:25:09.226Z,5568
2017-05-08T09:25:50.145Z,5064
2017-05-08T09:26:31.022Z,4860
2017-05-08T09:27:11.903Z,4780
2017-05-08T09:27:52.806Z,4832
2017-05-08T09:28:33.682Z,4688
2017-05-08T09:29:14.566Z,4448
2017-05-08T09:29:55.440Z,4008
2017-05-08T09:30:36.337Z,3308
2017-05-08T09:31:32.129Z,2532
2017-05-08T09:32:13.034Z,2232
2017-05-08T09:32:53.957Z,2104
2017-05-08T09:33:34.824Z,2060
2017-05-08T09:35:49.590Z,2292
2017-05-08T09:36:30.527Z,2296
2017-05-08T09:37:11.436Z,2200
2017-05-08T09:37:52.316Z,2124
2017-05-08T09:38:33.292Z,2156
2017-05-08T09:39:14.170Z,2392
2017-05-08T09:39:55.044Z,2836
2017-05-08T09:40:35.928Z,3124
2017-05-08T09:41:16.813Z,3200
2017-05-08T09:41:57.690Z,3280
2017-05-08T09:42:38.578Z,3356
2017-05-08T09:43:19.526Z,3388
2017-05-08T09:44:00.386Z,3272
2017-05-08T09:44:41.283Z,3096
2017-05-08T09:45:22.159Z,2892
2017-05-08T09:46:03.050Z,2820
2017-05-08T09:46:43.931Z,2864
2017-05-08T09:47:24.827Z,2924
2017-05-08T09:48:05.715Z,3084
2017-05-08T09:48:46.601Z,3164
2017-05-08T09:49:27.488Z,3100
2017-05-08T09:50:08.365Z,2964
2017-05-08T09:50:49.247Z,2924
2017-05-08T09:51:30.159Z,2988
2017-05-08T09:52:11.090Z,2948
2017-05-08T09:52:51.951Z,2844
2017-05-08T09:53:32.823Z,2712
2017-05-08T09:54:13.727Z,2716
2017-05-08T09:54:54.625Z,2832
2017-05-08T09:55:35.509Z,2912
2017-05-08T09:56:16.396Z,2988
2017-05-08T09:56:57.289Z,2952
2017-05-08T09:57:38.176Z,2832
2017-05-08T09:58:19.051Z,2828
2017-05-08T09:58:59.928Z,2864
2017-05-08T09:59:40.974Z,2948
2017-05-08T10:00:21.821Z,3036
2017-05-08T10:01:02.707Z,3144
2017-05-08T10:01:43.618Z,3092
2017-05-08T10:02:24.480Z,3124
2017-05-08T10:03:05.362Z,3164
2017-05-08T10:03:46.259Z,3212
2017-05-08T10:04:27.146Z,3124
2017-05-08T10:05:08.014Z,3424
2017-05-08T10:05:48.897Z,3728
2017-05-08T10:06:42.642Z,4156
2017-05-08T10:07:23.521Z,4228
2017-05-08T10:08:04.394Z,4128
2017-05-08T10:08:45.297Z,3584
2017-05-08T10:09:26.178Z,3476
2017-05-08T10:10:07.059Z,3532
2017-05-08T10:10:47.946Z,3552
2017-05-08T10:11:28.835Z,3876
2017-05-08T10:12:09.721Z,3780
2017-05-08T10:12:50.611Z,3652
2017-05-08T10:13:31.504Z,3516
2017-05-08T10:14:12.383Z,3480
2017-05-08T10:14:53.265Z,3604
2017-05-08T10:15:34.184Z,3548
2017-05-08T10:16:15.027Z,3468
2017-05-08T10:16:55.920Z,3668
2017-05-08T10:17:36.802Z,3776
2017-05-08T10:18:17.689Z,3476
2017-05-08T10:18:58.576Z,3280
2017-05-08T10:19:39.456Z,3200
2017-05-08T10:20:20.374Z,3292
2017-05-08T10:21:03.122Z,3668
2017-05-08T10:21:44.004Z,3568
2017-05-08T10:22:24.899Z,3356
2017-05-08T10:23:05.816Z,3332
2017-05-08T10:23:46.697Z,3680
2017-05-08T10:24:27.550Z,3540
2017-05-08T10:25:08.449Z,3548
2017-05-08T10:25:49.315Z,3532
2017-05-08T10:26:30.182Z,3656
2017-05-08T10:27:11.068Z,3872
2017-05-08T10:27:51.954Z,4284
2017-05-08T10:28:32.840Z,4648
2017-05-08T10:29:13.715Z,4796
2017-05-08T10:29:54.601Z,4872
2017-05-08T10:30:35.487Z,5064
2017-05-08T10:31:16.364Z,5500
2017-05-08T10:31:57.232Z,6704